createdAt,value
2024-02-07T00:00:36.965Z,99801.66
2024-02-07T00:03:05.585Z,99803.75
2024-02-07T00:05:33.821Z,99801.66
2024-02-07T00:08:02.583Z,99801.16
2024-02-07T00:10:32.127Z,99809.06
2024-02-07T00:13:00.165Z,99801.78
2024-02-07T00:15:28.821Z,99790.34
2024-02-07T00:17:58.068Z,99799.00
2024-02-07T00:20:26.188Z,99795.25
2024-02-07T00:22:54.345Z,99792.09
2024-02-07T00:25:22.427Z,99798.91
2024-02-07T00:27:52.026Z,99804.78
2024-02-07T00:30:28.319Z,99799.13
2024-02-07T00:33:03.407Z,99797.06
2024-02-07T00:35:31.558Z,99796.75
2024-02-07T00:37:59.730Z,99796.06
2024-02-07T00:40:28.379Z,99796.75
2024-02-07T00:42:58.856Z,99801.78
2024-02-07T00:45:27.164Z,99797.13
2024-02-07T00:47:55.274Z,99791.34
2024-02-07T00:50:23.489Z,99799.47
2024-02-07T00:52:51.764Z,99794.34
2024-02-07T00:55:19.885Z,99789.59
2024-02-07T00:57:50.193Z,99790.47
2024-02-07T01:00:20.745Z,99794.56
2024-02-07T01:02:48.789Z,99793.94
2024-02-07T01:05:16.878Z,99798.22
2024-02-07T01:07:45.031Z,99793.53
2024-02-07T01:10:13.129Z,99797.69
2024-02-07T01:12:41.545Z,99793.34
2024-02-07T01:15:09.669Z,99795.72
2024-02-07T01:17:40.228Z,99794.44
2024-02-07T01:20:12.004Z,99784.75
2024-02-07T01:22:40.451Z,99784.13
2024-02-07T01:25:08.984Z,99780.88
2024-02-07T01:27:37.586Z,99781.16
2024-02-07T01:30:08.392Z,99781.69
2024-02-07T01:32:36.514Z,99788.50
2024-02-07T01:35:08.264Z,99781.16
2024-02-07T01:37:36.433Z,99783.84
2024-02-07T01:40:04.871Z,99793.88
2024-02-07T01:42:33.827Z,99784.13
2024-02-07T01:45:23.757Z,99784.28
2024-02-07T01:47:52.783Z,99787.06
2024-02-07T01:50:23.466Z,99792.53
2024-02-07T01:52:53.956Z,99791.63
2024-02-07T01:55:23.203Z,99776.72
2024-02-07T01:57:51.291Z,99775.00
2024-02-07T02:00:19.577Z,99778.19
2024-02-07T02:02:49.861Z,99776.16
2024-02-07T02:05:18.005Z,99780.31
2024-02-07T02:07:48.476Z,99781.69
2024-02-07T02:10:16.985Z,99784.22
2024-02-07T02:12:45.666Z,99791.47
2024-02-07T02:15:14.242Z,99777.66
2024-02-07T02:17:42.911Z,99781.53
2024-02-07T02:20:11.784Z,99776.66
2024-02-07T02:23:13.080Z,99772.00
2024-02-07T02:26:14.046Z,99778.19
2024-02-07T02:28:55.765Z,99777.03
2024-02-07T02:31:26.427Z,99771.81
2024-02-07T02:33:57.738Z,99761.88
2024-02-07T02:36:25.892Z,99766.56
2024-02-07T02:38:54.271Z,99773.50
2024-02-07T02:41:23.862Z,99776.25
2024-02-07T02:43:52.078Z,99781.69
2024-02-07T02:46:21.430Z,99774.34
2024-02-07T02:48:51.091Z,99780.88
2024-02-07T02:51:19.522Z,99780.19
2024-02-07T02:53:47.533Z,99777.75
2024-02-07T02:56:16.473Z,99784.28
2024-02-07T02:58:46.103Z,99778.63
2024-02-07T03:01:15.160Z,99789.50
2024-02-07T03:03:54.615Z,99793.06
2024-02-07T03:06:31.289Z,99803.06
2024-02-07T03:09:09.558Z,99792.66
2024-02-07T03:11:38.212Z,99791.22
2024-02-07T03:14:07.509Z,99797.00
2024-02-07T03:16:37.401Z,99792.84
2024-02-07T03:19:05.745Z,99788.97
2024-02-07T03:21:35.305Z,99800.41
2024-02-07T03:24:03.347Z,99800.47
2024-02-07T03:26:31.408Z,99802.06
2024-02-07T03:29:00.425Z,99805.66
2024-02-07T03:31:29.875Z,99807.44
2024-02-07T03:33:58.003Z,99804.38
2024-02-07T03:36:28.021Z,99805.94
2024-02-07T03:39:00.036Z,99808.72
2024-02-07T03:41:28.131Z,99814.09
2024-02-07T03:43:56.243Z,99800.91
2024-02-07T03:46:25.263Z,99799.13
2024-02-07T03:48:54.037Z,99793.94
2024-02-07T03:51:28.795Z,99795.59
2024-02-07T03:54:00.427Z,99807.09
2024-02-07T03:56:30.213Z,99806.22
2024-02-07T03:58:59.639Z,99812.66
2024-02-07T04:01:28.992Z,99819.75
2024-02-07T04:03:58.749Z,99820.44
2024-02-07T04:06:27.377Z,99818.81
2024-02-07T04:08:57.143Z,99826.28
2024-02-07T04:11:25.662Z,99837.00
2024-02-07T04:13:52.545Z,99838.63
2024-02-07T04:16:37.978Z,99825.56
2024-02-07T04:19:23.400Z,99845.56
2024-02-07T04:22:09.282Z,99837.59
2024-02-07T04:24:54.685Z,99842.50
2024-02-07T04:27:41.694Z,99839.81
2024-02-07T04:30:27.970Z,99849.03
2024-02-07T04:33:13.458Z,99861.69
2024-02-07T04:35:59.249Z,99878.34
2024-02-07T04:38:44.701Z,99872.69
2024-02-07T04:41:30.106Z,99875.94
2024-02-07T04:44:17.161Z,99880.31
2024-02-07T04:47:02.607Z,99884.81
2024-02-07T04:49:47.918Z,99886.75
2024-02-07T04:52:33.265Z,99889.38
2024-02-07T04:55:18.667Z,99898.06
2024-02-07T04:58:04.432Z,99888.66
2024-02-07T05:00:51.192Z,99889.69
2024-02-07T05:03:36.764Z,99895.09
2024-02-07T05:06:22.757Z,99906.59
2024-02-07T05:09:08.121Z,99904.16
2024-02-07T05:11:53.533Z,99907.06
2024-02-07T05:14:38.951Z,99910.63
2024-02-07T05:17:08.379Z,99919.78
2024-02-07T05:19:37.532Z,99918.78
2024-02-07T05:22:05.994Z,99922.66
2024-02-07T05:24:34.385Z,99936.09
2024-02-07T05:27:03.585Z,99945.66
2024-02-07T05:29:32.618Z,99943.19
2024-02-07T05:32:00.801Z,99947.28
2024-02-07T05:34:30.490Z,99960.75
2024-02-07T05:36:59.355Z,99960.13
2024-02-07T05:39:27.464Z,99960.44
2024-02-07T05:41:55.677Z,99968.16
2024-02-07T05:44:23.735Z,99972.91
2024-02-07T05:46:51.771Z,99975.19
2024-02-07T05:49:19.990Z,99984.16
2024-02-07T05:52:01.654Z,99992.59
2024-02-07T05:54:31.000Z,100002.16
2024-02-07T05:56:59.167Z,100007.66
2024-02-07T05:59:27.393Z,100005.25
2024-02-07T06:01:55.515Z,100009.63
2024-02-07T06:04:23.694Z,100014.31
2024-02-07T06:06:53.351Z,100015.78
2024-02-07T06:09:21.488Z,100019.03
2024-02-07T06:11:50.525Z,100017.41
2024-02-07T06:14:18.593Z,100020.34
2024-02-07T06:16:46.750Z,100017.25
2024-02-07T06:19:15.029Z,100022.78
2024-02-07T06:21:43.122Z,100019.38
2024-02-07T06:24:12.684Z,100024.56
2024-02-07T06:26:40.753Z,100025.06
2024-02-07T06:29:08.759Z,100028.31
2024-02-07T06:31:37.541Z,100033.38
2024-02-07T06:34:05.798Z,100041.75
2024-02-07T06:36:34.185Z,100040.63
2024-02-07T06:39:02.297Z,100029.16
2024-02-07T06:41:31.761Z,100042.78
2024-02-07T06:44:00.261Z,100043.75
2024-02-07T06:46:30.683Z,100046.16
2024-02-07T06:48:58.903Z,100045.69
2024-02-07T06:51:27.141Z,100059.94
2024-02-07T06:53:55.180Z,100061.41
2024-02-07T06:56:23.276Z,100063.50
2024-02-07T06:58:52.749Z,100068.38
2024-02-07T07:01:20.908Z,100075.69
2024-02-07T07:03:51.619Z,100078.13
2024-02-07T07:06:19.823Z,100077.63
2024-02-07T07:08:47.886Z,100079.09
2024-02-07T07:11:15.964Z,100095.13
2024-02-07T07:13:44.073Z,100094.66
2024-02-07T07:16:13.615Z,100095.16
2024-02-07T07:18:41.729Z,100095.94
2024-02-07T07:21:09.798Z,100104.69
2024-02-07T07:23:37.877Z,100120.72
2024-02-07T07:26:06.036Z,100110.03
2024-02-07T07:28:34.214Z,100110.66
2024-02-07T07:31:02.440Z,100123.66
2024-02-07T07:33:31.840Z,100136.78
2024-02-07T07:35:59.933Z,100137.91
2024-02-07T07:38:27.998Z,100148.28
2024-02-07T07:40:56.036Z,100144.59
2024-02-07T07:43:24.135Z,100140.06
2024-02-07T07:45:52.223Z,100152.50
2024-02-07T07:48:24.086Z,100157.16
2024-02-07T07:50:55.172Z,100161.25
2024-02-07T07:53:23.298Z,100166.63
2024-02-07T07:55:51.412Z,100165.63
2024-02-07T07:58:19.579Z,100167.09
2024-02-07T08:00:51.837Z,100173.53
2024-02-07T08:03:20.330Z,100169.97
2024-02-07T08:05:48.882Z,100173.56
2024-02-07T08:08:18.625Z,100174.19
2024-02-07T08:10:48.041Z,100187.22
2024-02-07T08:13:16.301Z,100204.41
2024-02-07T08:15:45.263Z,100196.13
2024-02-07T08:18:13.485Z,100201.81
2024-02-07T08:20:41.611Z,100204.75
2024-02-07T08:23:09.670Z,100207.00
2024-02-07T08:25:39.356Z,100206.84
2024-02-07T08:28:07.874Z,100210.25
2024-02-07T08:30:35.909Z,100220.50
2024-02-07T08:33:04.085Z,100226.97
2024-02-07T08:35:32.412Z,100212.22
2024-02-07T08:38:01.171Z,100217.41
2024-02-07T08:40:29.598Z,100231.09
2024-02-07T08:43:00.122Z,100226.88
2024-02-07T08:45:28.164Z,100235.97
2024-02-07T08:47:56.380Z,100233.69
2024-02-07T08:50:24.458Z,100238.41
2024-02-07T08:52:52.498Z,100238.22
2024-02-07T08:55:20.583Z,100246.50
2024-02-07T08:57:48.642Z,100246.81
2024-02-07T09:00:19.149Z,100251.53
2024-02-07T09:02:51.195Z,100262.72
2024-02-07T09:05:21.122Z,100261.94
2024-02-07T09:07:50.107Z,100261.00
2024-02-07T09:10:18.501Z,100262.78
2024-02-07T09:12:46.568Z,100258.69
2024-02-07T09:15:14.700Z,100268.59
2024-02-07T09:17:44.196Z,100264.69
2024-02-07T09:20:14.291Z,100252.03
2024-02-07T09:22:43.253Z,100258.22
2024-02-07T09:25:11.433Z,100268.94
2024-02-07T09:27:41.935Z,100272.53
2024-02-07T09:30:13.269Z,100277.38
2024-02-07T09:32:44.971Z,100282.59
2024-02-07T09:35:13.620Z,100274.81
2024-02-07T09:37:42.920Z,100282.91
2024-02-07T09:40:12.534Z,100283.06
2024-02-07T09:42:43.357Z,100277.88
2024-02-07T09:45:14.170Z,100292.31
2024-02-07T09:47:50.419Z,100288.94
2024-02-07T09:50:19.613Z,100294.78
2024-02-07T09:52:48.924Z,100294.94
2024-02-07T09:55:17.557Z,100293.63
2024-02-07T09:57:45.644Z,100291.38
2024-02-07T10:00:14.658Z,100296.25
2024-02-07T10:02:48.420Z,100297.22
2024-02-07T10:05:20.116Z,100294.13
2024-02-07T10:07:52.725Z,100318.81
2024-02-07T10:10:21.588Z,100313.44
2024-02-07T10:12:49.937Z,100325.97
2024-02-07T10:15:18.285Z,100334.22
2024-02-07T10:17:47.911Z,100334.75
2024-02-07T10:20:17.055Z,100329.53
2024-02-07T10:22:45.629Z,100334.06
2024-02-07T10:25:15.609Z,100328.88
2024-02-07T10:27:44.169Z,100329.53
2024-02-07T10:30:14.988Z,100336.50
2024-02-07T10:32:46.615Z,100352.75
2024-02-07T10:35:19.695Z,100347.56
2024-02-07T10:37:48.060Z,100348.22
2024-02-07T10:40:16.334Z,100345.28
2024-02-07T10:42:44.398Z,100353.06
2024-02-07T10:45:14.879Z,100353.09
2024-02-07T10:47:45.276Z,100353.09
2024-02-07T10:50:13.584Z,100344.31
2024-02-07T10:52:43.677Z,100347.56
2024-02-07T10:55:13.696Z,100352.75
2024-02-07T10:57:46.618Z,100352.78
2024-02-07T11:00:16.253Z,100350.47
2024-02-07T11:02:47.222Z,100356.97
2024-02-07T11:05:15.977Z,100349.81
2024-02-07T11:07:45.742Z,100348.22
2024-02-07T11:10:17.483Z,100365.25
2024-02-07T11:12:46.171Z,100351.44
2024-02-07T11:15:14.209Z,100351.63
2024-02-07T11:17:42.371Z,100343.03
2024-02-07T11:20:12.735Z,100351.28
2024-02-07T11:22:43.825Z,100349.13
2024-02-07T11:25:17.140Z,100348.84
2024-02-07T11:27:45.341Z,100341.34
2024-02-07T11:30:14.156Z,100349.34
2024-02-07T11:32:42.275Z,100353.72
2024-02-07T11:35:11.706Z,100358.72
2024-02-07T11:37:40.677Z,100350.28
2024-02-07T11:40:11.526Z,100364.94
2024-02-07T11:42:42.123Z,100357.13
2024-02-07T11:45:13.968Z,100368.81
2024-02-07T11:47:44.323Z,100359.75
2024-02-07T11:50:16.111Z,100368.03
2024-02-07T11:52:44.925Z,100362.84
2024-02-07T11:55:15.738Z,100357.78
2024-02-07T11:57:46.361Z,100363.16
2024-02-07T12:00:16.912Z,100358.13
2024-02-07T12:02:48.136Z,100370.44
2024-02-07T12:05:17.165Z,100365.44
2024-02-07T12:07:46.100Z,100363.59
2024-02-07T12:10:14.184Z,100369.94
2024-02-07T12:12:42.254Z,100371.56
2024-02-07T12:15:12.172Z,100376.94
2024-02-07T12:17:40.340Z,100378.38
2024-02-07T12:20:09.486Z,100382.63
2024-02-07T12:22:37.857Z,100391.75
2024-02-07T12:25:07.229Z,100409.47
2024-02-07T12:27:35.730Z,100402.00
2024-02-07T12:30:03.826Z,100404.34
2024-02-07T12:32:35.920Z,100404.94
2024-02-07T12:35:07.511Z,100407.06
2024-02-07T12:37:36.193Z,100410.47
2024-02-07T12:40:04.904Z,100403.25
2024-02-07T12:42:32.980Z,100405.53
2024-02-07T12:45:02.340Z,100404.56
2024-02-07T12:47:30.442Z,100400.34
2024-02-07T12:49:59.932Z,100403.59
2024-02-07T12:52:28.143Z,100400.38
2024-02-07T12:54:56.262Z,100396.78
2024-02-07T12:57:25.144Z,100396.97
2024-02-07T12:59:53.532Z,100406.38
2024-02-07T13:02:21.928Z,100408.81
2024-02-07T13:04:50.156Z,100406.06
2024-02-07T13:07:21.090Z,100412.56
2024-02-07T13:09:49.726Z,100405.06
2024-02-07T13:12:23.862Z,100402.97
2024-02-07T13:14:59.894Z,100405.56
2024-02-07T13:17:28.099Z,100407.38
2024-02-07T13:19:56.300Z,100407.19
2024-02-07T13:22:25.927Z,100403.16
2024-02-07T13:24:54.069Z,100400.88
2024-02-07T13:27:22.104Z,100404.75
2024-02-07T13:29:50.146Z,100404.91
2024-02-07T13:32:23.179Z,100407.19
2024-02-07T13:34:51.760Z,100405.59
2024-02-07T13:37:19.955Z,100404.91
2024-02-07T13:39:49.379Z,100402.31
2024-02-07T13:42:20.098Z,100400.38
2024-02-07T13:44:50.115Z,100407.34
2024-02-07T13:47:19.574Z,100406.41
2024-02-07T13:49:48.557Z,100410.13
2024-02-07T13:52:16.893Z,100416.94
2024-02-07T13:54:45.138Z,100417.09
2024-02-07T13:57:14.567Z,100420.22
2024-02-07T13:59:42.591Z,100422.31
2024-02-07T14:02:11.551Z,100417.44
2024-02-07T14:04:39.665Z,100412.56
2024-02-07T14:07:07.761Z,100418.06
2024-02-07T14:09:35.873Z,100406.53
2024-02-07T14:12:03.886Z,100407.34
2024-02-07T14:14:33.921Z,100417.13
2024-02-07T14:17:02.021Z,100416.13
2024-02-07T14:19:30.212Z,100429.00
2024-02-07T14:22:00.588Z,100429.31
2024-02-07T14:24:31.481Z,100427.13
2024-02-07T14:26:59.506Z,100427.50
2024-02-07T14:29:27.646Z,100427.13
2024-02-07T14:31:57.994Z,100434.00
2024-02-07T14:34:26.283Z,100429.91
2024-02-07T14:36:54.349Z,100428.50
2024-02-07T14:39:24.334Z,100420.84
2024-02-07T14:41:52.426Z,100422.63
2024-02-07T14:44:22.361Z,100422.94
2024-02-07T14:46:50.804Z,100424.06
2024-02-07T14:49:22.006Z,100420.09
2024-02-07T14:51:50.172Z,100421.78
2024-02-07T14:54:18.403Z,100430.09
2024-02-07T14:56:46.532Z,100434.44
2024-02-07T14:59:18.139Z,100423.84
2024-02-07T15:01:46.914Z,100431.78
2024-02-07T15:04:15.035Z,100429.72
2024-02-07T15:06:44.699Z,100434.53
2024-02-07T15:09:12.691Z,100428.25
2024-02-07T15:11:40.644Z,100425.25
2024-02-07T15:14:08.734Z,100427.75
2024-02-07T15:16:38.177Z,100426.13
2024-02-07T15:19:06.292Z,100427.03
2024-02-07T15:21:34.292Z,100427.03
2024-02-07T15:24:03.631Z,100426.84
2024-02-07T15:26:31.539Z,100428.09
2024-02-07T15:28:59.477Z,100432.69
2024-02-07T15:31:27.475Z,100425.00
2024-02-07T15:33:55.479Z,100430.53
2024-02-07T15:36:23.565Z,100427.38
2024-02-07T15:38:51.623Z,100429.34
2024-02-07T15:41:20.949Z,100422.34
2024-02-07T15:43:49.123Z,100426.38
2024-02-07T15:46:18.049Z,100430.28
2024-02-07T15:48:54.926Z,100429.56
2024-02-07T15:51:30.512Z,100427.28
2024-02-07T15:53:58.437Z,100425.00
2024-02-07T15:56:27.835Z,100426.94
2024-02-07T15:58:55.869Z,100430.31
2024-02-07T16:01:33.685Z,100425.72
2024-02-07T16:04:09.741Z,100427.81
2024-02-07T16:06:37.772Z,100434.13
2024-02-07T16:09:05.823Z,100426.13
2024-02-07T16:11:35.121Z,100434.88
2024-02-07T16:14:03.116Z,100439.69
2024-02-07T16:16:32.277Z,100427.84
2024-02-07T16:19:00.353Z,100430.88
2024-02-07T16:21:28.407Z,100437.34
2024-02-07T16:23:56.309Z,100434.69
2024-02-07T16:26:24.252Z,100428.19
2024-02-07T16:28:53.993Z,100437.34
2024-02-07T16:31:22.287Z,100439.56
2024-02-07T16:33:50.312Z,100436.13
2024-02-07T16:36:18.338Z,100437.09
2024-02-07T16:38:46.727Z,100440.50
2024-02-07T16:41:14.689Z,100434.50
2024-02-07T16:43:42.679Z,100440.78
2024-02-07T16:46:12.075Z,100442.78
2024-02-07T16:48:40.237Z,100440.31
2024-02-07T16:51:08.512Z,100444.44
2024-02-07T16:53:36.833Z,100444.75
2024-02-07T16:56:05.304Z,100443.25
2024-02-07T16:58:33.398Z,100440.47
2024-02-07T17:01:01.493Z,100436.38
2024-02-07T17:03:30.887Z,100438.84
2024-02-07T17:05:58.932Z,100439.13
2024-02-07T17:08:30.654Z,100440.38
2024-02-07T17:10:58.858Z,100442.28
2024-02-07T17:13:27.024Z,100439.84
2024-02-07T17:15:55.077Z,100437.16
2024-02-07T17:18:23.250Z,100443.97
2024-02-07T17:20:52.783Z,100444.09
2024-02-07T17:23:20.800Z,100439.22
2024-02-07T17:25:49.175Z,100437.09
2024-02-07T17:28:17.313Z,100431.38
2024-02-07T17:30:45.478Z,100436.56
2024-02-07T17:33:13.637Z,100432.75
2024-02-07T17:35:42.076Z,100433.59
2024-02-07T17:38:11.605Z,100437.28
2024-02-07T17:40:39.705Z,100440.66
2024-02-07T17:43:08.585Z,100430.31
2024-02-07T17:45:37.209Z,100433.28
2024-02-07T17:48:05.965Z,100437.41
2024-02-07T17:50:35.658Z,100433.75
2024-02-07T17:53:05.188Z,100431.31
2024-02-07T17:55:34.958Z,100429.53
2024-02-07T17:58:03.026Z,100423.84
2024-02-07T18:00:31.055Z,100424.94
2024-02-07T18:02:59.094Z,100427.31
2024-02-07T18:05:28.154Z,100433.44
2024-02-07T18:07:57.924Z,100432.75
2024-02-07T18:10:26.222Z,100437.41
2024-02-07T18:12:56.817Z,100438.50
2024-02-07T18:15:24.907Z,100425.84
2024-02-07T18:17:53.011Z,100423.38
2024-02-07T18:20:21.406Z,100421.47
2024-02-07T18:22:49.609Z,100428.41
2024-02-07T18:25:17.779Z,100427.59
2024-02-07T18:27:45.816Z,100430.44
2024-02-07T18:30:15.767Z,100420.09
2024-02-07T18:32:43.932Z,100421.34
2024-02-07T18:35:12.075Z,100426.25
2024-02-07T18:37:40.284Z,100427.06
2024-02-07T18:40:09.428Z,100429.53
2024-02-07T18:42:40.108Z,100426.41
2024-02-07T18:45:09.025Z,100421.25
2024-02-07T18:47:38.529Z,100419.59
2024-02-07T18:50:07.541Z,100411.84
2024-02-07T18:52:39.283Z,100414.31
2024-02-07T18:55:08.218Z,100412.53
2024-02-07T18:57:39.324Z,100413.41
2024-02-07T19:00:09.585Z,100414.09
2024-02-07T19:02:39.384Z,100400.75
2024-02-07T19:05:07.903Z,100411.25
2024-02-07T19:07:36.446Z,100414.78
2024-02-07T19:10:04.980Z,100403.34
2024-02-07T19:12:32.993Z,100410.34
2024-02-07T19:15:01.026Z,100403.13
2024-02-07T19:17:29.167Z,100407.34
2024-02-07T19:19:58.722Z,100405.44
2024-02-07T19:22:26.778Z,100402.72
2024-02-07T19:24:55.127Z,100400.13
2024-02-07T19:27:23.170Z,100398.22
2024-02-07T19:29:51.281Z,100406.81
2024-02-07T19:32:20.380Z,100400.28
2024-02-07T19:34:49.808Z,100401.91
2024-02-07T19:37:19.483Z,100406.25
2024-02-07T19:39:47.606Z,100406.81
2024-02-07T19:42:15.677Z,100402.31
2024-02-07T19:44:43.747Z,100398.78
2024-02-07T19:47:11.830Z,100407.09
2024-02-07T19:49:40.116Z,100410.06
2024-02-07T19:52:10.011Z,100405.06
2024-02-07T19:54:39.458Z,100403.84
2024-02-07T19:57:07.543Z,100397.31
2024-02-07T19:59:35.574Z,100389.16
2024-02-07T20:02:03.627Z,100391.19
2024-02-07T20:04:31.728Z,100381.53
2024-02-07T20:06:59.788Z,100387.09
2024-02-07T20:09:27.861Z,100382.22
2024-02-07T20:11:57.326Z,100379.91
2024-02-07T20:14:26.344Z,100380.03
2024-02-07T20:16:54.840Z,100378.94
2024-02-07T20:19:22.992Z,100387.09
2024-02-07T20:21:51.378Z,100390.66
2024-02-07T20:24:19.489Z,100386.16
2024-02-07T20:26:47.487Z,100383.88
2024-02-07T20:29:16.939Z,100369.03
2024-02-07T20:31:46.034Z,100376.78
2024-02-07T20:34:14.164Z,100373.53
2024-02-07T20:36:44.078Z,100367.56
2024-02-07T20:39:13.781Z,100378.41
2024-02-07T20:41:42.508Z,100374.59
2024-02-07T20:44:13.466Z,100367.00
2024-02-07T20:46:43.036Z,100369.97
2024-02-07T20:49:11.150Z,100371.75
2024-02-07T20:51:39.179Z,100374.03
2024-02-07T20:54:07.343Z,100378.78
2024-02-07T20:56:36.383Z,100378.25
2024-02-07T20:59:04.426Z,100374.03
2024-02-07T21:01:32.587Z,100372.28
2024-02-07T21:04:02.128Z,100376.88
2024-02-07T21:06:30.746Z,100376.88
2024-02-07T21:08:58.917Z,100371.34
2024-02-07T21:11:26.985Z,100366.84
2024-02-07T21:13:55.125Z,100364.28
2024-02-07T21:16:23.301Z,100373.91
2024-02-07T21:18:51.737Z,100369.16
2024-02-07T21:21:21.224Z,100366.44
2024-02-07T21:23:49.307Z,100368.47
2024-02-07T21:26:17.454Z,100367.81
2024-02-07T21:28:45.532Z,100368.19
2024-02-07T21:31:14.314Z,100366.56
2024-02-07T21:33:42.557Z,100366.28
2024-02-07T21:36:10.785Z,100366.16
2024-02-07T21:38:40.342Z,100366.44
2024-02-07T21:41:08.517Z,100361.81
2024-02-07T21:43:36.660Z,100361.13
2024-02-07T21:46:06.857Z,100371.47
2024-02-07T21:48:34.943Z,100367.66
2024-02-07T21:51:03.014Z,100367.78
2024-02-07T21:53:31.016Z,100366.41
2024-02-07T21:56:00.570Z,100366.56
2024-02-07T21:58:28.684Z,100363.44
2024-02-07T22:00:56.769Z,100366.81
2024-02-07T22:03:24.816Z,100364.22
2024-02-07T22:05:52.892Z,100372.22
2024-02-07T22:08:21.106Z,100368.81
2024-02-07T22:10:49.199Z,100362.03
2024-02-07T22:13:18.624Z,100361.66
2024-02-07T22:15:46.670Z,100358.25
2024-02-07T22:18:14.841Z,100358.81
2024-02-07T22:20:42.920Z,100359.75
2024-02-07T22:23:11.050Z,100355.94
2024-02-07T22:25:39.220Z,100353.47
2024-02-07T22:28:07.625Z,100352.38
2024-02-07T22:30:37.080Z,100362.44
2024-02-07T22:33:05.511Z,100359.16
2024-02-07T22:35:33.561Z,100354.00
2024-02-07T22:38:03.448Z,100357.25
2024-02-07T22:40:31.610Z,100349.28
2024-02-07T22:43:00.046Z,100345.88
2024-02-07T22:45:28.833Z,100345.56
2024-02-07T22:47:58.459Z,100349.78
2024-02-07T22:50:26.845Z,100335.66
2024-02-07T22:52:54.946Z,100335.91
2024-02-07T22:55:23.084Z,100331.44
2024-02-07T22:57:51.267Z,100329.56
2024-02-07T23:00:21.398Z,100333.63
2024-02-07T23:02:49.687Z,100324.78
2024-02-07T23:05:19.192Z,100331.84
2024-02-07T23:07:47.380Z,100334.53
2024-02-07T23:10:15.412Z,100333.28
2024-02-07T23:12:46.126Z,100326.63
2024-02-07T23:15:14.455Z,100324.06
2024-02-07T23:17:42.575Z,100328.97
2024-02-07T23:20:11.213Z,100331.28
2024-02-07T23:22:40.763Z,100328.94
2024-02-07T23:25:09.879Z,100329.50
2024-02-07T23:27:37.938Z,100329.75
2024-02-07T23:30:06.649Z,100333.97
2024-02-07T23:32:34.754Z,100339.13
2024-02-07T23:35:02.971Z,100343.22
2024-02-07T23:37:31.089Z,100345.63
2024-02-07T23:40:00.571Z,100344.28
2024-02-07T23:42:28.956Z,100342.66
2024-02-07T23:44:56.968Z,100339.97
2024-02-07T23:47:25.376Z,100345.13
2024-02-07T23:49:53.536Z,100346.63
2024-02-07T23:52:21.596Z,100344.84
2024-02-07T23:54:50.405Z,100344.28
2024-02-07T23:57:19.882Z,100348.63
2024-02-07T23:59:47.967Z,100343.22
